Time;durP1;ratioP1;P1;durP2;ratioP2;P2;SDS_P1;SDS_P2;PMS_P1;PMS_P2;Temp;Humidity;BMP_temperature;BMP_pressure;BME280_temperature;BME280_humidity;BME280_pressure;Samples;Min_cycle;Max_cycle;Signal;HPM_P1;HPM_P2
2022/04/09 00:01:55;;;;;;;3.37;3.17;;;;;;;3.91;100.00;94738.84;5034494;28;20231;-57
2022/04/09 00:04:23;;;;;;;2.73;2.63;;;;;;;3.84;100.00;94765.06;5029063;28;21020;-59
2022/04/09 00:06:52;;;;;;;3.27;3.07;;;;;;;3.82;100.00;94725.16;5025225;28;20602;-58
2022/04/09 00:09:20;;;;;;;2.70;2.60;;;;;;;3.84;100.00;94743.28;5001484;28;20211;-59
2022/04/09 00:11:49;;;;;;;2.73;2.53;;;;;;;3.87;100.00;94788.25;5033934;28;20617;-56
2022/04/09 00:14:19;;;;;;;2.87;2.67;;;;;;;3.80;100.00;94736.84;5013029;28;20269;-57
2022/04/09 00:16:47;;;;;;;2.80;2.63;;;;;;;3.86;100.00;94746.50;5007097;28;20313;-58
2022/04/09 00:19:15;;;;;;;3.13;2.93;;;;;;;3.80;100.00;94748.13;5024840;28;20408;-58
2022/04/09 00:21:44;;;;;;;3.10;2.90;;;;;;;3.67;100.00;94767.28;5029139;28;20593;-57
2022/04/09 00:24:12;;;;;;;2.60;2.50;;;;;;;3.57;100.00;94770.28;4987963;28;20972;-56
2022/04/09 00:26:40;;;;;;;2.97;2.77;;;;;;;3.47;100.00;94791.59;5028958;28;20759;-55
2022/04/09 00:29:09;;;;;;;3.30;3.10;;;;;;;3.26;100.00;94789.16;4987112;28;20220;-57
2022/04/09 00:31:38;;;;;;;2.37;2.27;;;;;;;3.12;100.00;94806.59;5025988;28;20239;-56
2022/04/09 00:34:07;;;;;;;1.90;1.80;;;;;;;2.84;100.00;94813.53;5022164;28;20205;-56
2022/04/09 00:36:35;;;;;;;1.27;1.27;;;;;;;2.45;100.00;94814.91;5027538;28;20231;-56
2022/04/09 00:39:03;;;;;;;1.17;1.17;;;;;;;2.25;100.00;94833.06;4999521;28;20627;-60
2022/04/09 00:41:32;;;;;;;1.00;1.00;;;;;;;2.05;100.00;94869.47;5022144;28;20235;-57
2022/04/09 00:44:00;;;;;;;1.00;1.00;;;;;;;1.85;100.00;94873.53;5010766;28;20783;-57
2022/04/09 00:46:29;;;;;;;0.87;0.87;;;;;;;1.82;100.00;94894.00;5006683;28;20545;-57
2022/04/09 00:48:58;;;;;;;1.07;1.07;;;;;;;1.70;100.00;94917.94;5023775;28;20200;-58
2022/04/09 00:51:26;;;;;;;0.73;0.73;;;;;;;1.41;100.00;94950.97;5026394;28;20762;-57
2022/04/09 00:53:55;;;;;;;0.70;0.70;;;;;;;1.26;100.00;94963.19;5028652;28;20334;-61
2022/04/09 00:56:24;;;;;;;0.70;0.70;;;;;;;1.10;100.00;94985.06;4989791;28;20343;-60
2022/04/09 00:58:55;;;;;;;0.70;0.70;;;;;;;0.84;100.00;94961.03;5007464;28;21010;-60
2022/04/09 01:01:24;;;;;;;0.80;0.80;;;;;;;0.76;100.00;94950.69;5024080;28;20231;-60
2022/04/09 01:03:53;;;;;;;0.60;0.60;;;;;;;0.71;100.00;94953.00;5027294;28;20917;-57
2022/04/09 01:06:23;;;;;;;3.30;1.10;;;;;;;0.53;100.00;94964.56;5026276;28;20662;-58
2022/04/09 01:08:51;;;;;;;0.80;0.80;;;;;;;0.37;100.00;94969.91;5025851;28;20232;-58
2022/04/09 01:11:19;;;;;;;1.53;1.17;;;;;;;0.32;100.00;94973.03;4987054;28;20215;-58
2022/04/09 01:13:47;;;;;;;0.73;0.73;;;;;;;0.20;100.00;94961.41;5022092;28;20430;-60
2022/04/09 01:16:15;;;;;;;1.17;0.73;;;;;;;0.11;100.00;94981.47;4973423;28;20226;-59
2022/04/09 01:18:44;;;;;;;0.73;0.73;;;;;;;0.00;100.00;94982.69;5030759;28;20203;-59
2022/04/09 01:21:12;;;;;;;0.70;0.70;;;;;;;-0.03;100.00;94996.88;5023042;28;21013;-59
2022/04/09 01:23:42;;;;;;;0.90;0.90;;;;;;;-0.01;100.00;95012.28;5029139;28;20286;-58
2022/04/09 01:26:10;;;;;;;1.20;1.20;;;;;;;0.03;100.00;95010.19;4992914;28;20990;-55
2022/04/09 01:28:39;;;;;;;0.97;0.97;;;;;;;0.02;100.00;95019.78;5032474;28;20326;-54
2022/04/09 01:31:07;;;;;;;0.97;0.70;;;;;;;0.13;100.00;95048.03;5005928;28;20558;-57
2022/04/09 01:33:35;;;;;;;1.00;1.00;;;;;;;0.02;100.00;95071.03;5032108;28;20220;-56
2022/04/09 01:36:04;;;;;;;0.93;0.93;;;;;;;0.06;100.00;95086.16;5025474;28;20235;-56
2022/04/09 01:38:34;;;;;;;0.67;0.67;;;;;;;0.02;100.00;95102.28;5022099;28;20228;-56
2022/04/09 01:41:04;;;;;;;0.90;0.90;;;;;;;-0.05;100.00;95116.00;4977868;28;21048;-58
2022/04/09 01:43:32;;;;;;;0.70;0.70;;;;;;;-0.02;100.00;95118.25;5019609;28;20675;-57
2022/04/09 01:46:01;;;;;;;1.00;1.00;;;;;;;-0.07;100.00;95148.38;5002189;28;20334;-60
2022/04/09 01:48:29;;;;;;;0.90;0.90;;;;;;;-0.01;100.00;95169.34;5025186;28;20207;-59
2022/04/09 01:50:57;;;;;;;1.00;1.00;;;;;;;-0.02;100.00;95159.91;5021473;28;20299;-57
2022/04/09 01:53:25;;;;;;;0.93;0.93;;;;;;;-0.01;100.00;95163.31;5023604;28;20254;-61
2022/04/09 01:55:53;;;;;;;0.97;0.97;;;;;;;-0.02;100.00;95146.06;5020883;28;20330;-55
2022/04/09 01:58:23;;;;;;;1.03;1.03;;;;;;;0.05;100.00;95172.25;4980982;28;20657;-57
2022/04/09 02:00:58;;;;;;;1.10;1.10;;;;;;;0.07;100.00;95189.34;5006742;28;20310;-57
2022/04/09 02:03:27;;;;;;;1.23;1.23;;;;;;;0.05;100.00;95183.50;5029971;28;20203;-56
2022/04/09 02:05:55;;;;;;;1.10;1.10;;;;;;;0.15;100.00;95206.72;5025715;28;20636;-57
2022/04/09 02:08:24;;;;;;;1.10;1.10;;;;;;;0.20;100.00;95229.66;5031095;28;20199;-57
2022/04/09 02:10:52;;;;;;;0.93;0.93;;;;;;;0.20;100.00;95240.91;5023002;28;20238;-57
2022/04/09 02:13:20;;;;;;;1.17;1.17;;;;;;;0.20;100.00;95256.53;4983761;28;20227;-60
2022/04/09 02:15:50;;;;;;;1.27;1.27;;;;;;;0.22;100.00;95292.84;4999873;28;20303;-56
2022/04/09 02:18:18;;;;;;;1.30;1.30;;;;;;;0.19;100.00;95298.38;5026468;28;20315;-58
2022/04/09 02:20:46;;;;;;;1.43;1.43;;;;;;;0.23;100.00;95297.88;5025355;28;20321;-58
2022/04/09 02:23:15;;;;;;;1.80;1.70;;;;;;;0.18;100.00;95322.78;5025842;28;20479;-57
2022/04/09 02:25:43;;;;;;;1.30;1.30;;;;;;;0.20;100.00;95344.28;5027608;28;20294;-57
2022/04/09 02:28:11;;;;;;;1.40;1.40;;;;;;;0.22;100.00;95348.34;4977311;28;20868;-59
2022/04/09 02:30:39;;;;;;;1.63;1.63;;;;;;;0.21;100.00;95359.75;5021916;28;20361;-57
2022/04/09 02:33:09;;;;;;;1.30;1.30;;;;;;;0.17;100.00;95358.44;5003604;28;20465;-59
2022/04/09 02:35:37;;;;;;;1.87;1.77;;;;;;;0.21;100.00;95378.00;5024538;28;20672;-58
2022/04/09 02:38:07;;;;;;;1.70;1.60;;;;;;;0.20;100.00;95394.59;5027675;28;20530;-61
2022/04/09 02:40:35;;;;;;;2.00;1.90;;;;;;;0.15;100.00;95399.44;5025246;28;20453;-57
2022/04/09 02:43:03;;;;;;;1.70;1.70;;;;;;;0.15;100.00;95415.09;4985842;28;21354;-60
2022/04/09 02:45:32;;;;;;;2.20;2.10;;;;;;;0.19;100.00;95433.81;5027414;28;20445;-58
2022/04/09 02:48:00;;;;;;;2.40;2.30;;;;;;;0.14;100.00;95429.09;5002197;28;20318;-55
2022/04/09 02:50:30;;;;;;;2.07;1.97;;;;;;;0.18;100.00;95446.00;5030425;28;20558;-54
2022/04/09 02:52:58;;;;;;;2.77;2.57;;;;;;;0.23;100.00;95451.56;5021322;28;20224;-55
2022/04/09 02:55:26;;;;;;;2.43;2.33;;;;;;;0.16;100.00;95463.59;5025647;28;20300;-56
2022/04/09 02:57:54;;;;;;;2.67;2.53;;;;;;;0.12;100.00;95477.91;5024279;28;20235;-57
2022/04/09 03:00:22;;;;;;;3.13;2.93;;;;;;;0.18;100.00;95487.69;4980771;28;20285;-59
2022/04/09 03:02:50;;;;;;;2.90;2.70;;;;;;;0.25;100.00;95509.53;5012527;28;20228;-58
2022/04/09 03:05:19;;;;;;;2.63;2.43;;;;;;;0.21;100.00;95526.47;5023359;28;20411;-58
2022/04/09 03:07:49;;;;;;;3.27;2.87;;;;;;;0.24;100.00;95527.91;5026762;28;20223;-55
2022/04/09 03:10:17;;;;;;;2.70;2.50;;;;;;;0.24;100.00;95525.31;5024671;28;20299;-60
2022/04/09 03:12:45;;;;;;;2.83;2.63;;;;;;;0.18;100.00;95537.19;5030773;28;20645;-58
2022/04/09 03:15:14;;;;;;;2.40;2.30;;;;;;;0.21;100.00;95573.34;4976900;28;20500;-57
2022/04/09 03:17:43;;;;;;;3.30;3.13;;;;;;;0.20;100.00;95582.16;5025160;28;20298;-56
2022/04/09 03:20:12;;;;;;;3.57;3.30;;;;;;;0.24;100.00;95580.84;5009868;28;20725;-60
2022/04/09 03:22:45;;;;;;;3.03;2.83;;;;;;;0.26;100.00;95593.69;5025877;28;20227;-57
2022/04/09 03:25:14;;;;;;;3.10;2.90;;;;;;;0.25;100.00;95607.69;5024402;28;20435;-58
2022/04/09 03:27:43;;;;;;;3.50;3.10;;;;;;;0.29;100.00;95609.00;5024560;28;20294;-58
2022/04/09 03:30:12;;;;;;;2.40;2.30;;;;;;;0.24;100.00;95606.91;4978608;28;20907;-59
2022/04/09 03:32:41;;;;;;;3.10;2.90;;;;;;;0.29;100.00;95606.41;5025191;28;20257;-56
2022/04/09 03:35:11;;;;;;;3.07;2.87;;;;;;;0.34;100.00;95613.75;5003312;28;20501;-58
2022/04/09 03:37:40;;;;;;;3.73;3.50;;;;;;;0.29;100.00;95642.88;5022816;28;20268;-57
2022/04/09 03:40:09;;;;;;;3.70;3.40;;;;;;;0.28;100.00;95641.25;5022407;28;20387;-56
2022/04/09 03:42:39;;;;;;;3.40;3.00;;;;;;;0.34;100.00;95638.00;5027260;28;20252;-58
2022/04/09 03:45:08;;;;;;;4.00;3.70;;;;;;;0.32;100.00;95645.16;4977764;28;20226;-58
2022/04/09 03:47:37;;;;;;;4.23;3.93;;;;;;;0.36;100.00;95656.09;5025342;28;20595;-59
2022/04/09 03:50:06;;;;;;;3.77;3.43;;;;;;;0.32;100.00;95670.44;5003487;28;20840;-53
2022/04/09 03:52:34;;;;;;;4.43;4.13;;;;;;;0.32;100.00;95686.06;5027678;28;20315;-56
2022/04/09 03:55:02;;;;;;;4.63;4.27;;;;;;;0.31;100.00;95698.25;5023286;28;20326;-58
2022/04/09 03:57:31;;;;;;;3.30;3.10;;;;;;;0.35;100.00;95712.59;5026100;28;20265;-60
2022/04/09 04:00:00;;;;;;;3.50;3.30;;;;;;;0.38;100.00;95727.94;5025564;28;20456;-59
2022/04/09 04:02:29;;;;;;;3.70;3.50;;;;;;;0.33;100.00;95731.97;4978592;28;20231;-56
2022/04/09 04:05:02;;;;;;;3.70;3.50;;;;;;;0.38;100.00;95746.19;5035753;28;20221;-57
2022/04/09 04:07:30;;;;;;;4.07;3.77;;;;;;;0.34;100.00;95749.25;5003852;28;20273;-54
2022/04/09 04:10:02;;;;;;;4.50;4.20;;;;;;;0.43;100.00;95756.13;5026584;28;20289;-57
2022/04/09 04:12:30;;;;;;;4.37;3.97;;;;;;;0.35;100.00;95759.50;5000054;28;20291;-56
2022/04/09 04:15:00;;;;;;;4.00;3.70;;;;;;;0.34;100.00;95764.88;5031066;28;20634;-61
2022/04/09 04:17:28;;;;;;;5.23;4.83;;;;;;;0.31;100.00;95773.00;4979900;28;20649;-55
2022/04/09 04:19:56;;;;;;;4.73;4.37;;;;;;;0.32;100.00;95787.66;5027517;28;20262;-57
2022/04/09 04:22:24;;;;;;;5.70;5.23;;;;;;;0.34;100.00;95791.75;5003876;28;20231;-56
2022/04/09 04:24:52;;;;;;;5.33;4.83;;;;;;;0.33;100.00;95786.69;5029834;28;20289;-58
2022/04/09 04:27:21;;;;;;;5.67;5.17;;;;;;;0.37;100.00;95804.47;5028260;28;20738;-56
2022/04/09 04:29:49;;;;;;;5.47;5.00;;;;;;;0.37;100.00;95817.47;5026611;28;20788;-57
2022/04/09 04:32:18;;;;;;;5.10;4.70;;;;;;;0.36;100.00;95810.63;4976903;28;20537;-57
2022/04/09 04:34:52;;;;;;;6.17;5.67;;;;;;;0.41;100.00;95820.63;4999064;28;20211;-58
2022/04/09 04:37:20;;;;;;;5.63;5.13;;;;;;;0.32;100.00;95821.53;5004268;28;20235;-57
2022/04/09 04:39:48;;;;;;;6.63;6.03;;;;;;;0.26;100.00;95834.22;5027542;28;20314;-59
2022/04/09 04:42:17;;;;;;;6.10;5.33;;;;;;;0.32;100.00;95837.97;5001933;28;20258;-58
2022/04/09 04:44:45;;;;;;;5.90;5.40;;;;;;;0.34;100.00;95836.03;5017821;28;20240;-60
2022/04/09 04:47:13;;;;;;;6.67;4.87;;;;;;;0.43;100.00;95849.94;4973108;28;20215;-56
2022/04/09 04:49:43;;;;;;;5.53;5.03;;;;;;;0.36;100.00;95854.13;5006301;28;20827;-58
2022/04/09 04:52:11;;;;;;;7.72;7.03;;;;;;;0.40;100.00;95860.69;5025968;28;20476;-56
2022/04/09 04:54:39;;;;;;;6.90;5.70;;;;;;;0.40;100.00;95876.31;5015363;28;20296;-59
2022/04/09 04:57:07;;;;;;;8.07;6.27;;;;;;;0.70;100.00;95879.44;5027755;28;21045;-57
2022/04/09 04:59:35;;;;;;;6.73;6.13;;;;;;;0.52;100.00;95885.50;5029792;28;20228;-58
2022/04/09 05:02:04;;;;;;;6.87;6.27;;;;;;;0.46;100.00;95891.34;4990579;28;20777;-60
2022/04/09 05:04:32;;;;;;;8.33;7.53;;;;;;;0.42;100.00;95901.25;5027056;28;20203;-58
2022/04/09 05:07:02;;;;;;;8.10;7.33;;;;;;;0.50;100.00;95908.28;5011774;28;20278;-62
2022/04/09 05:09:31;;;;;;;8.23;7.53;;;;;;;0.55;100.00;95923.50;5002188;28;20419;-59
2022/04/09 05:11:59;;;;;;;7.53;6.80;;;;;;;0.61;100.00;95922.06;5029119;28;20223;-62
2022/04/09 05:14:28;;;;;;;8.30;7.53;;;;;;;0.59;100.00;95937.84;5027507;28;20921;-59
2022/04/09 05:16:57;;;;;;;8.67;7.80;;;;;;;0.65;100.00;95946.88;5031460;28;20262;-59
2022/04/09 05:19:28;;;;;;;8.90;8.10;;;;;;;0.65;100.00;95946.88;4996064;28;20224;-59
2022/04/09 05:21:56;;;;;;;8.90;8.10;;;;;;;0.66;100.00;95951.09;5012081;28;20340;-60
2022/04/09 05:24:25;;;;;;;9.67;8.77;;;;;;;0.70;100.00;95961.06;4995208;28;21125;-59
2022/04/09 05:26:54;;;;;;;8.97;8.10;;;;;;;0.78;100.00;95956.91;5029755;28;20208;-59
2022/04/09 05:29:22;;;;;;;9.27;8.37;;;;;;;0.76;100.00;95967.47;5031357;28;20859;-61
2022/04/09 05:31:50;;;;;;;8.63;7.97;;;;;;;0.76;100.00;95980.50;5031050;28;20267;-60
2022/04/09 05:34:19;;;;;;;8.57;7.73;;;;;;;0.66;100.00;96001.44;4987450;28;20211;-61
2022/04/09 05:36:47;;;;;;;8.77;7.87;;;;;;;0.68;100.00;96007.31;5009920;28;20239;-60
2022/04/09 05:39:17;;;;;;;8.03;7.23;;;;;;;0.76;100.00;96010.97;5000387;28;20224;-57
2022/04/09 05:41:46;;;;;;;8.97;8.07;;;;;;;0.77;100.00;96008.22;5022570;28;20895;-62
2022/04/09 05:44:15;;;;;;;9.17;7.97;;;;;;;0.72;100.00;96016.47;5012511;28;20692;-59
2022/04/09 05:46:43;;;;;;;7.03;6.43;;;;;;;0.70;100.00;96031.47;5027778;28;20269;-59
2022/04/09 05:49:12;;;;;;;8.27;7.57;;;;;;;0.67;100.00;96038.78;4984655;28;20303;-59
2022/04/09 05:51:40;;;;;;;7.63;6.93;;;;;;;0.67;100.00;96046.59;5009605;28;20524;-60
2022/04/09 05:54:08;;;;;;;7.77;7.07;;;;;;;0.59;100.00;96051.75;5021575;28;20957;-58
2022/04/09 05:56:37;;;;;;;8.43;7.73;;;;;;;0.65;100.00;96064.19;4993337;28;20204;-61
2022/04/09 05:59:07;;;;;;;8.40;7.60;;;;;;;0.60;100.00;96075.03;5023934;28;20244;-59
2022/04/09 06:01:47;;;;;;;8.50;7.70;;;;;;;0.57;100.00;96080.56;4981968;28;20288;-61
2022/04/09 06:04:19;;;;;;;9.03;7.43;;;;;;;0.72;100.00;96083.47;4991244;28;20266;-58
2022/04/09 06:06:48;;;;;;;8.73;7.83;;;;;;;0.77;100.00;96086.44;5010226;28;20223;-61
2022/04/09 06:09:16;;;;;;;9.73;7.83;;;;;;;0.95;100.00;96099.47;5009466;28;20299;-56
2022/04/09 06:11:44;;;;;;;8.97;8.07;;;;;;;0.97;100.00;96105.34;5013734;28;20214;-57
2022/04/09 06:14:15;;;;;;;7.77;7.17;;;;;;;1.03;100.00;96113.56;5025293;28;20918;-57
2022/04/09 06:16:44;;;;;;;8.47;7.57;;;;;;;1.05;100.00;96117.66;5010460;28;20638;-59
2022/04/09 06:19:13;;;;;;;7.10;6.23;;;;;;;1.16;100.00;96121.84;5012567;28;20738;-58
2022/04/09 06:21:41;;;;;;;7.07;6.47;;;;;;;1.19;100.00;96131.97;4965769;28;21055;-58
2022/04/09 06:24:10;;;;;;;8.20;7.37;;;;;;;1.26;100.00;96126.94;5027181;28;20270;-58
2022/04/09 06:26:38;;;;;;;9.77;8.70;;;;;;;1.29;100.00;96139.69;5006300;28;20242;-56
2022/04/09 06:29:06;;;;;;;7.23;6.63;;;;;;;1.32;100.00;96147.22;5022202;28;20231;-57
2022/04/09 06:31:36;;;;;;;7.40;6.80;;;;;;;1.36;100.00;96148.56;5009504;28;20774;-59
2022/04/09 06:34:04;;;;;;;7.67;6.87;;;;;;;1.62;100.00;96158.19;5012763;28;20262;-59
2022/04/09 06:36:33;;;;;;;7.17;6.63;;;;;;;1.49;100.00;96163.00;4984641;28;20382;-58
2022/04/09 06:39:01;;;;;;;8.93;7.83;;;;;;;1.22;100.00;96156.91;5007935;28;20259;-57
2022/04/09 06:41:29;;;;;;;8.40;7.40;;;;;;;1.17;100.00;96169.59;5019497;28;20701;-57
2022/04/09 06:43:58;;;;;;;8.38;7.68;;;;;;;1.27;100.00;96178.16;5021506;28;20462;-59
2022/04/09 06:46:27;;;;;;;8.10;6.90;;;;;;;1.35;100.00;96185.25;5023011;28;20291;-60
2022/04/09 06:48:57;;;;;;;6.87;6.37;;;;;;;1.43;100.00;96180.09;5009902;28;21835;-58
2022/04/09 06:51:25;;;;;;;7.67;7.03;;;;;;;1.55;100.00;96186.72;5008892;28;20625;-56
2022/04/09 06:53:54;;;;;;;7.23;6.63;;;;;;;1.64;100.00;96181.56;4999391;28;20425;-60
2022/04/09 06:56:22;;;;;;;7.77;7.07;;;;;;;1.61;100.00;96181.88;5029270;28;20212;-57
2022/04/09 06:58:50;;;;;;;6.83;6.23;;;;;;;1.57;100.00;96187.41;5017910;28;20950;-59
2022/04/09 07:01:19;;;;;;;6.13;5.63;;;;;;;1.71;100.00;96187.81;5028623;28;20738;-57
2022/04/09 07:03:47;;;;;;;6.97;6.37;;;;;;;1.76;100.00;96192.56;5016393;28;20227;-59
2022/04/09 07:06:23;;;;;;;7.30;6.47;;;;;;;1.87;100.00;96185.28;5029936;28;20679;-54
2022/04/09 07:08:51;;;;;;;6.83;6.23;;;;;;;2.15;100.00;96190.34;4977470;28;21969;-58
2022/04/09 07:11:20;;;;;;;9.20;5.87;;;;;;;2.41;100.00;96194.72;5030559;28;20327;-57
2022/04/09 07:13:48;;;;;;;6.57;5.93;;;;;;;2.39;100.00;96203.69;5014901;28;20299;-59
2022/04/09 07:16:16;;;;;;;5.87;5.30;;;;;;;2.45;100.00;96198.66;5029028;28;20200;-58
2022/04/09 07:18:45;;;;;;;7.03;5.80;;;;;;;2.77;100.00;96195.50;5014961;28;20227;-59
2022/04/09 07:21:13;;;;;;;6.83;6.23;;;;;;;2.59;100.00;96204.25;5033651;28;20805;-59
2022/04/09 07:23:42;;;;;;;7.40;6.63;;;;;;;2.65;100.00;96208.06;4986306;28;20935;-59
2022/04/09 07:26:11;;;;;;;6.80;6.30;;;;;;;2.58;100.00;96215.69;5011896;28;20799;-56
2022/04/09 07:28:39;;;;;;;8.03;6.00;;;;;;;2.62;100.00;96216.22;5015528;28;20224;-55
2022/04/09 07:31:07;;;;;;;5.33;4.80;;;;;;;2.33;100.00;96226.06;5031351;28;20765;-57
2022/04/09 07:33:35;;;;;;;5.87;5.47;;;;;;;2.22;100.00;96231.53;5011898;28;20219;-56
2022/04/09 07:36:04;;;;;;;6.30;5.70;;;;;;;2.15;100.00;96232.16;5031140;28;20207;-56
2022/04/09 07:38:33;;;;;;;7.13;6.43;;;;;;;2.14;100.00;96227.91;4988378;28;20311;-58
2022/04/09 07:41:03;;;;;;;6.83;5.37;;;;;;;2.39;100.00;96235.06;5009392;28;20243;-59
2022/04/09 07:43:31;;;;;;;5.27;4.87;;;;;;;2.45;100.00;96244.91;5015069;28;20738;-56
2022/04/09 07:45:59;;;;;;;5.80;5.40;;;;;;;2.55;100.00;96248.25;5031343;28;20760;-54
2022/04/09 07:48:28;;;;;;;6.27;5.67;;;;;;;2.71;100.00;96237.03;5022669;28;20297;-55
2022/04/09 07:50:56;;;;;;;5.53;5.03;;;;;;;2.66;100.00;96241.91;5025367;28;20265;-55
2022/04/09 07:53:24;;;;;;;5.50;5.00;;;;;;;2.84;100.00;96261.91;5028598;28;20223;-55
2022/04/09 07:55:52;;;;;;;5.23;4.57;;;;;;;2.85;100.00;96264.38;4969284;28;22751;-58
2022/04/09 07:58:22;;;;;;;5.67;4.80;;;;;;;2.83;100.00;96271.53;5029223;28;20293;-56
2022/04/09 08:00:51;;;;;;;7.40;4.93;;;;;;;3.16;100.00;96281.31;5001708;28;20278;-56
2022/04/09 08:03:19;;;;;;;5.27;4.77;;;;;;;3.11;100.00;96283.59;5030053;28;20773;-55
2022/04/09 08:05:47;;;;;;;5.53;5.03;;;;;;;3.11;100.00;96287.03;5017390;28;20232;-54
2022/04/09 08:08:16;;;;;;;8.10;5.17;;;;;;;3.04;100.00;96293.88;5030839;28;20773;-53
2022/04/09 08:10:44;;;;;;;5.70;5.10;;;;;;;3.24;100.00;96291.00;4969503;28;20336;-55
2022/04/09 08:13:13;;;;;;;5.57;4.80;;;;;;;3.30;100.00;96275.44;5003072;28;20827;-55
2022/04/09 08:15:43;;;;;;;5.43;4.93;;;;;;;3.33;100.00;96288.22;5017192;28;20549;-55
2022/04/09 08:18:12;;;;;;;6.67;5.30;;;;;;;3.19;100.00;96287.03;4987932;28;20207;-54
2022/04/09 08:21:00;;;;;;;7.93;5.47;;;;;;;3.26;100.00;96291.66;5013495;28;20235;-56
2022/04/09 08:23:28;;;;;;;5.17;4.67;;;;;;;3.21;100.00;96299.16;5015149;28;20314;-54
2022/04/09 08:25:57;;;;;;;5.30;4.90;;;;;;;3.54;100.00;96304.47;4978057;28;20273;-56
2022/04/09 08:28:26;;;;;;;5.57;5.00;;;;;;;3.45;100.00;96309.69;5019154;28;20431;-57
2022/04/09 08:30:56;;;;;;;8.63;5.30;;;;;;;3.46;100.00;96310.53;5020584;28;20295;-58
2022/04/09 08:33:25;;;;;;;6.73;4.80;;;;;;;3.33;100.00;96308.38;4990891;28;20239;-53
2022/04/09 08:35:53;;;;;;;5.20;4.80;;;;;;;3.38;100.00;96315.72;5014372;28;20753;-56
2022/04/09 08:38:22;;;;;;;5.33;4.90;;;;;;;3.40;100.00;96319.84;5008519;28;20340;-54
2022/04/09 08:40:51;;;;;;;5.70;5.20;;;;;;;3.58;100.00;96326.72;5016955;28;20331;-54
2022/04/09 08:43:20;;;;;;;7.23;5.10;;;;;;;3.57;100.00;96330.34;4985942;28;20227;-54
2022/04/09 08:45:49;;;;;;;7.50;4.70;;;;;;;3.73;100.00;96335.63;5027708;28;20303;-57
2022/04/09 08:48:22;;;;;;;5.17;4.70;;;;;;;3.73;100.00;96334.78;4999712;28;20506;-56
2022/04/09 08:50:50;;;;;;;5.32;4.93;;;;;;;4.02;100.00;96344.81;4997148;28;23064;-57
2022/04/09 08:53:18;;;;;;;6.23;5.13;;;;;;;3.83;100.00;96342.50;5032622;28;20290;-57
2022/04/09 08:55:48;;;;;;;5.77;4.63;;;;;;;3.48;100.00;96337.38;5009236;28;20295;-58
2022/04/09 08:58:16;;;;;;;4.90;4.03;;;;;;;3.70;100.00;96351.66;4970251;28;20204;-59
2022/04/09 09:00:45;;;;;;;4.70;4.30;;;;;;;3.76;100.00;96351.00;5024383;28;20300;-57
2022/04/09 09:03:15;;;;;;;6.73;4.83;;;;;;;3.93;100.00;96355.47;5004011;28;20232;-56
2022/04/09 09:05:48;;;;;;;5.63;5.13;;;;;;;4.04;100.00;96357.75;4985589;28;20830;-56
2022/04/09 09:08:37;;;;;;;6.63;4.63;;;;;;;4.04;100.00;96363.84;5018289;28;20716;-53
2022/04/09 09:11:06;;;;;;;6.70;4.93;;;;;;;3.80;100.00;96364.63;4994657;28;20269;-54
2022/04/09 09:13:46;;;;;;;5.27;4.77;;;;;;;3.53;100.00;96373.56;4981989;28;20285;-56
2022/04/09 09:16:23;;;;;;;6.03;4.57;;;;;;;3.31;100.00;96373.16;5033709;28;20199;-58
2022/04/09 09:18:52;;;;;;;4.80;4.40;;;;;;;3.18;100.00;96373.59;4999536;28;20324;-57
2022/04/09 09:21:26;;;;;;;6.43;4.80;;;;;;;3.37;100.00;96375.16;5013141;28;20602;-53
2022/04/09 09:24:12;;;;;;;6.80;5.43;;;;;;;3.74;100.00;96373.94;5011873;28;20302;-58
2022/04/09 09:26:41;;;;;;;5.13;4.13;;;;;;;3.52;100.00;96370.13;4972721;28;20211;-57
2022/04/09 09:29:10;;;;;;;5.03;4.63;;;;;;;3.67;100.00;96378.19;5025982;28;20235;-56
2022/04/09 09:31:44;;;;;;;5.27;4.33;;;;;;;3.70;100.00;96372.63;5010882;28;20310;-55
2022/04/09 09:34:13;;;;;;;5.47;4.80;;;;;;;3.70;100.00;96377.03;4999624;28;20633;-58
2022/04/09 09:36:43;;;;;;;7.87;4.50;;;;;;;3.58;100.00;96379.13;4999117;28;20254;-55
2022/04/09 09:39:13;;;;;;;5.50;3.80;;;;;;;3.55;100.00;96393.38;5030887;28;20235;-57
2022/04/09 09:41:48;;;;;;;4.87;4.43;;;;;;;3.46;100.00;96389.09;4971830;28;20268;-52
2022/04/09 09:44:19;;;;;;;4.88;3.78;;;;;;;3.50;100.00;96393.03;5023890;28;20533;-59
2022/04/09 09:46:49;;;;;;;4.93;3.77;;;;;;;3.70;100.00;96398.00;4986443;28;20311;-58
2022/04/09 09:49:18;;;;;;;4.13;3.73;;;;;;;3.82;100.00;96396.72;5013721;28;20235;-57
2022/04/09 09:52:02;;;;;;;4.17;3.80;;;;;;;4.51;100.00;96405.28;5001053;28;20549;-58
2022/04/09 09:54:31;;;;;;;4.07;3.73;;;;;;;4.75;100.00;96407.09;5015680;28;20310;-57
2022/04/09 09:57:00;;;;;;;5.53;3.20;;;;;;;4.57;100.00;96404.66;4990487;28;22256;-59
2022/04/09 09:59:30;;;;;;;5.10;3.57;;;;;;;4.73;100.00;96398.53;5028008;28;20262;-57
2022/04/09 10:01:59;;;;;;;3.83;3.53;;;;;;;4.60;100.00;96401.69;5013434;28;20436;-55
2022/04/09 10:04:28;;;;;;;3.17;2.97;;;;;;;4.47;100.00;96396.94;5010411;28;20234;-57
2022/04/09 10:06:58;;;;;;;5.27;3.00;;;;;;;4.09;100.00;96407.88;5000966;28;21039;-54
2022/04/09 10:09:29;;;;;;;3.53;2.90;;;;;;;4.12;100.00;96410.19;5014278;28;20705;-53
2022/04/09 10:11:59;;;;;;;4.47;3.20;;;;;;;3.95;100.00;96413.78;5029156;28;20211;-60
2022/04/09 10:14:29;;;;;;;6.40;4.27;;;;;;;3.80;100.00;96416.19;4989010;28;20310;-55
2022/04/09 10:16:58;;;;;;;4.10;3.47;;;;;;;3.78;100.00;96423.41;5012552;28;20214;-55
2022/04/09 10:19:27;;;;;;;3.97;3.67;;;;;;;3.84;100.00;96420.13;4995178;28;20298;-58
2022/04/09 10:21:57;;;;;;;3.60;3.40;;;;;;;3.97;100.00;96414.44;5005347;28;20261;-54
2022/04/09 10:24:27;;;;;;;6.30;3.80;;;;;;;4.08;100.00;96421.19;4994946;28;20211;-56
2022/04/09 10:26:58;;;;;;;3.83;3.40;;;;;;;4.35;100.00;96433.16;5021832;28;20404;-55
2022/04/09 10:29:26;;;;;;;3.17;2.93;;;;;;;4.19;100.00;96418.22;4983896;28;20332;-56
2022/04/09 10:31:54;;;;;;;5.37;3.37;;;;;;;4.39;100.00;96426.59;5022669;28;20303;-58
2022/04/09 10:34:22;;;;;;;6.53;3.37;;;;;;;4.16;100.00;96432.47;5004323;28;20324;-55
2022/04/09 10:37:04;;;;;;;4.23;3.40;;;;;;;4.14;100.00;96436.25;5026002;28;20832;-53
2022/04/09 10:39:48;;;;;;;3.70;3.43;;;;;;;4.22;100.00;96444.13;4976246;28;20217;-52
2022/04/09 10:42:48;;;;;;;3.43;3.23;;;;;;;4.39;100.00;96452.03;5006532;28;20322;-55
2022/04/09 10:45:17;;;;;;;4.40;3.23;;;;;;;4.45;100.00;96456.63;4965304;28;20222;-57
2022/04/09 10:48:10;;;;;;;3.07;2.87;;;;;;;4.18;100.00;96446.28;5007509;28;20533;-57
2022/04/09 10:50:58;;;;;;;3.97;3.50;;;;;;;4.20;100.00;96452.19;5008869;28;20215;-57
2022/04/09 10:53:29;;;;;;;3.30;3.00;;;;;;;4.32;100.00;96444.78;5004741;28;20489;-55
2022/04/09 10:56:15;;;;;;;6.13;3.23;;;;;;;4.18;100.00;96453.31;5003306;28;20208;-55
2022/04/09 10:59:05;;;;;;;4.93;2.83;;;;;;;4.34;100.00;96458.56;5030002;28;20725;-56
2022/04/09 11:01:53;;;;;;;5.70;3.60;;;;;;;4.80;100.00;96459.06;4971304;28;20548;-53
2022/04/09 11:04:42;;;;;;;6.00;3.43;;;;;;;5.19;100.00;96453.94;4997198;28;20234;-55
2022/04/09 11:07:17;;;;;;;3.20;2.77;;;;;;;5.27;100.00;96452.28;5027765;28;20212;-55
2022/04/09 11:09:56;;;;;;;6.13;3.27;;;;;;;5.39;100.00;96447.47;5006711;28;20873;-56
2022/04/09 11:12:26;;;;;;;4.03;3.07;;;;;;;5.21;100.00;96433.56;5013570;28;20219;-58
2022/04/09 11:14:57;;;;;;;6.10;3.23;;;;;;;5.60;100.00;96449.53;4992976;28;20227;-58
2022/04/09 11:17:29;;;;;;;3.20;3.00;;;;;;;5.42;100.00;96460.28;5001864;28;20204;-56
2022/04/09 11:20:02;;;;;;;3.57;3.10;;;;;;;5.42;100.00;96455.81;5014513;28;21284;-57
2022/04/09 11:22:34;;;;;;;2.47;2.37;;;;;;;5.35;100.00;96454.88;5009999;28;20307;-55
2022/04/09 11:25:05;;;;;;;3.30;2.40;;;;;;;5.22;100.00;96450.13;5018055;28;20235;-57
2022/04/09 11:27:34;;;;;;;2.63;2.43;;;;;;;5.41;100.00;96462.06;5014981;28;20295;-53
2022/04/09 11:30:03;;;;;;;2.43;2.23;;;;;;;6.06;100.00;96451.47;5030516;28;20239;-56
2022/04/09 11:32:35;;;;;;;3.17;2.53;;;;;;;6.44;100.00;96437.56;4995015;28;20227;-55
2022/04/09 11:35:08;;;;;;;2.50;2.17;;;;;;;6.30;100.00;96442.63;4996870;28;20238;-55
2022/04/09 11:37:40;;;;;;;2.40;2.17;;;;;;;6.14;100.00;96447.97;5028110;28;20211;-53
2022/04/09 11:40:11;;;;;;;2.20;2.10;;;;;;;6.07;100.00;96456.56;5014846;28;20231;-56
2022/04/09 11:42:44;;;;;;;3.43;2.60;;;;;;;6.16;100.00;96459.13;5017379;28;20292;-57
2022/04/09 11:45:20;;;;;;;2.60;2.40;;;;;;;6.34;100.00;96459.69;5037968;28;20203;-56
2022/04/09 11:47:49;;;;;;;2.97;2.30;;;;;;;6.36;100.00;96452.44;4993339;28;20212;-56